Time;durP1;ratioP1;P1;durP2;ratioP2;P2;SDS_P1;SDS_P2;PMS_P1;PMS_P2;Temp;Humidity;BMP_temperature;BMP_pressure;BME280_temperature;BME280_humidity;BME280_pressure;Samples;Min_cycle;Max_cycle;Signal;HPM_P1;HPM_P2
2023/07/18 00:02:17;;;;;;;;;;;;;;;23.69;65.31;93287.34;2048784;70;20062;-78
2023/07/18 00:04:46;;;;;;;;;;;;;;;23.45;65.55;93293.25;2051795;70;20054;-78
2023/07/18 00:07:13;;;;;;;;;;;;;;;23.59;65.47;93293.56;2051813;70;20047;-79
2023/07/18 00:09:41;;;;;;;;;;;;;;;23.62;65.21;93290.72;2051828;70;20051;-77
2023/07/18 00:12:08;;;;;;;;;;;;;;;23.54;65.33;93285.53;2051749;70;20086;-78
2023/07/18 00:14:33;;;;;;;;;;;;;;;23.61;65.23;93284.25;2051651;70;20083;-77
2023/07/18 00:16:59;;;;;;;;;;;;;;;23.58;65.26;93285.63;2051884;70;20051;-78
2023/07/18 00:19:27;;;;;;;;;;;;;;;23.54;65.71;93286.25;2051682;70;20047;-77
2023/07/18 00:21:54;;;;;;;;;;;;;;;23.31;65.95;93292.94;2048458;70;20207;-78
2023/07/18 00:24:20;;;;;;;;;;;;;;;23.27;66.44;93292.81;2051732;70;20058;-77
2023/07/18 00:26:47;;;;;;;;;;;;;;;23.29;65.20;93273.50;2051853;70;20051;-78
2023/07/18 00:29:12;;;;;;;;;;;;;;;23.43;65.39;93287.47;2048394;70;20066;-78
2023/07/18 00:31:39;;;;;;;;;;;;;;;23.30;66.25;93292.19;2051908;70;20121;-77
2023/07/18 00:34:06;;;;;;;;;;;;;;;23.39;65.63;93293.13;2051675;70;20053;-79
2023/07/18 00:36:32;;;;;;;;;;;;;;;23.21;66.65;93292.69;2051884;70;20067;-79
2023/07/18 00:38:58;;;;;;;;;;;;;;;23.22;67.37;93297.03;2045810;70;20121;-78
2023/07/18 00:41:23;;;;;;;;;;;;;;;23.17;67.38;93289.72;2048595;70;20042;-77
2023/07/18 00:43:49;;;;;;;;;;;;;;;23.17;67.51;93290.47;2051614;70;20433;-77
2023/07/18 00:46:16;;;;;;;;;;;;;;;23.30;66.19;93292.19;2048394;70;20467;-78
2023/07/18 00:48:42;;;;;;;;;;;;;;;23.36;65.95;93288.00;2048620;70;20074;-79
2023/07/18 00:51:07;;;;;;;;;;;;;;;23.03;67.67;93282.25;2051719;70;20080;-78
2023/07/18 00:53:35;;;;;;;;;;;;;;;23.11;67.38;93287.44;2051918;70;20093;-79
2023/07/18 00:56:03;;;;;;;;;;;;;;;23.07;67.31;93282.34;2051841;70;20051;-78
2023/07/18 00:58:30;;;;;;;;;;;;;;;23.10;66.99;93283.13;2051810;70;20067;-78
2023/07/18 01:00:59;;;;;;;;;;;;;;;22.95;68.38;93281.31;2051752;70;20042;-78
2023/07/18 01:03:24;;;;;;;;;;;;;;;22.99;68.20;93279.28;2048144;70;20140;-76
2023/07/18 01:05:51;;;;;;;;;;;;;;;23.01;67.50;93264.25;2048250;70;20059;-76
2023/07/18 01:08:17;;;;;;;;;;;;;;;23.00;68.36;93271.38;2051585;70;20050;-77
2023/07/18 01:10:43;;;;;;;;;;;;;;;22.96;69.17;93269.16;2051605;70;20058;-77
2023/07/18 01:13:13;;;;;;;;;;;;;;;23.05;68.25;93270.81;2048627;70;20058;-78
2023/07/18 01:15:38;;;;;;;;;;;;;;;23.04;68.34;93269.34;2051091;70;20114;-77
2023/07/18 01:18:08;;;;;;;;;;;;;;;22.94;68.47;93266.22;2051448;70;20522;-76
2023/07/18 01:20:36;;;;;;;;;;;;;;;23.11;67.83;93263.75;2048231;70;20109;-77
2023/07/18 01:23:03;;;;;;;;;;;;;;;23.16;66.15;93262.44;2045613;70;20062;-78
2023/07/18 01:25:30;;;;;;;;;;;;;;;23.05;67.18;93265.06;2048410;70;20047;-78
2023/07/18 01:27:57;;;;;;;;;;;;;;;23.12;67.52;93271.66;2048852;70;20077;-78
2023/07/18 01:30:24;;;;;;;;;;;;;;;23.11;67.64;93275.25;2051728;70;20251;-79
2023/07/18 01:32:50;;;;;;;;;;;;;;;23.07;67.49;93270.84;2051575;70;20059;-79
2023/07/18 01:35:20;;;;;;;;;;;;;;;23.12;67.51;93271.66;2051634;70;20047;-77
2023/07/18 01:37:46;;;;;;;;;;;;;;;23.03;67.64;93270.03;2051265;70;20047;-78
2023/07/18 01:40:13;;;;;;;;;;;;;;;23.07;67.81;93273.00;2048543;70;20499;-78
2023/07/18 01:42:39;;;;;;;;;;;;;;;23.08;67.77;93262.97;2051673;70;20163;-78
2023/07/18 01:45:05;;;;;;;;;;;;;;;23.04;67.71;93269.34;2048400;70;20497;-77
2023/07/18 01:47:31;;;;;;;;;;;;;;;23.16;67.10;93271.78;2051736;70;20158;-77
2023/07/18 01:49:58;;;;;;;;;;;;;;;23.02;67.93;93274.31;2048246;70;20186;-78
2023/07/18 01:52:25;;;;;;;;;;;;;;;22.96;68.87;93269.16;2048614;70;20047;-78
2023/07/18 01:54:58;;;;;;;;;;;;;;;23.04;68.04;93265.75;2048059;70;20053;-77
2023/07/18 01:57:32;;;;;;;;;;;;;;;22.90;67.43;93269.00;2048143;70;20502;-81
2023/07/18 02:00:03;;;;;;;;;;;;;;;23.04;67.38;93268.59;2048336;70;20475;-79
2023/07/18 02:02:28;;;;;;;;;;;;;;;22.95;68.83;93266.97;2051792;70;20047;-79
2023/07/18 02:04:55;;;;;;;;;;;;;;;23.03;68.08;93267.88;2051600;70;20056;-78
2023/07/18 02:07:21;;;;;;;;;;;;;;;23.00;68.77;93268.50;2048328;70;20088;-79
2023/07/18 02:09:47;;;;;;;;;;;;;;;22.99;68.34;93264.19;2048469;70;20051;-79
2023/07/18 02:12:13;;;;;;;;;;;;;;;22.94;68.24;93265.50;2048300;70;20204;-78
2023/07/18 02:14:38;;;;;;;;;;;;;;;23.04;67.83;93272.22;2048124;70;20535;-78
2023/07/18 02:17:04;;;;;;;;;;;;;;;22.90;68.45;93271.16;2051623;70;20076;-78
2023/07/18 02:19:31;;;;;;;;;;;;;;;22.96;69.16;93277.78;2048056;70;20105;-78
2023/07/18 02:22:00;;;;;;;;;;;;;;;23.01;68.94;93282.19;2051474;70;20050;-78
2023/07/18 02:24:27;;;;;;;;;;;;;;;22.96;69.74;93279.91;2051554;70;20051;-78
2023/07/18 02:26:54;;;;;;;;;;;;;;;22.94;69.38;93285.59;2051479;70;20079;-78
2023/07/18 02:29:20;;;;;;;;;;;;;;;22.84;68.76;93283.91;2051448;70;20042;-77
2023/07/18 02:31:46;;;;;;;;;;;;;;;22.89;68.26;93284.78;2051293;70;20117;-77
2023/07/18 02:34:12;;;;;;;;;;;;;;;22.88;68.61;93277.56;2051411;70;20094;-77
2023/07/18 02:36:37;;;;;;;;;;;;;;;22.76;69.64;93274.38;2048311;70;20050;-77
2023/07/18 02:39:06;;;;;;;;;;;;;;;22.68;70.36;93283.53;2048282;70;20051;-77
2023/07/18 02:41:35;;;;;;;;;;;;;;;22.66;70.09;93283.47;2051635;70;20051;-78
2023/07/18 02:44:02;;;;;;;;;;;;;;;22.87;68.70;93281.13;2051492;70;20050;-78
2023/07/18 02:46:28;;;;;;;;;;;;;;;22.84;69.25;93286.78;2051425;70;20058;-77
2023/07/18 02:48:55;;;;;;;;;;;;;;;22.89;69.50;93281.91;2051236;70;20063;-76
2023/07/18 02:51:20;;;;;;;;;;;;;;;22.83;70.14;93284.59;2051618;70;20050;-77
2023/07/18 02:53:49;;;;;;;;;;;;;;;22.89;70.19;93278.28;2051603;70;20058;-77
2023/07/18 02:56:15;;;;;;;;;;;;;;;22.98;68.19;93283.56;2048208;70;20061;-77
2023/07/18 02:58:41;;;;;;;;;;;;;;;22.78;69.44;93285.91;2048153;70;20039;-77
2023/07/18 03:01:07;;;;;;;;;;;;;;;22.92;69.41;93291.31;2048317;70;20097;-77
2023/07/18 03:03:40;;;;;;;;;;;;;;;22.85;69.69;93290.38;2048169;70;20164;-77
2023/07/18 03:06:07;;;;;;;;;;;;;;;22.86;69.39;93293.97;2051313;70;20086;-75
2023/07/18 03:08:34;;;;;;;;;;;;;;;22.65;69.83;93302.09;2051398;70;20102;-76
2023/07/18 03:11:00;;;;;;;;;;;;;;;22.38;71.53;93303.56;2051467;70;20043;-77
2023/07/18 03:13:27;;;;;;;;;;;;;;;22.48;70.52;93300.22;2048152;70;20415;-77
2023/07/18 03:15:55;;;;;;;;;;;;;;;22.49;71.41;93304.53;2051549;70;20042;-78
2023/07/18 03:18:21;;;;;;;;;;;;;;;22.53;71.91;93298.91;2051178;70;20483;-78
2023/07/18 03:20:47;;;;;;;;;;;;;;;22.60;70.85;93294.06;2048460;70;20127;-78
2023/07/18 03:23:12;;;;;;;;;;;;;;;22.67;70.49;93301.41;2048137;70;20062;-79
2023/07/18 03:25:38;;;;;;;;;;;;;;;22.74;69.87;93295.16;2051560;70;20145;-78
2023/07/18 03:28:04;;;;;;;;;;;;;;;22.63;70.34;93292.69;2051745;70;20066;-78
2023/07/18 03:30:33;;;;;;;;;;;;;;;22.70;69.46;93303.66;2052253;70;20097;-77
2023/07/18 03:32:58;;;;;;;;;;;;;;;22.69;69.70;93305.06;2049278;70;20109;-79
2023/07/18 03:35:28;;;;;;;;;;;;;;;22.78;69.10;93289.53;2049046;70;20058;-79
2023/07/18 03:37:56;;;;;;;;;;;;;;;22.55;69.90;93293.25;2048929;70;20058;-78
2023/07/18 03:40:22;;;;;;;;;;;;;;;22.52;70.01;93298.19;2052400;70;20071;-79
2023/07/18 03:42:48;;;;;;;;;;;;;;;22.61;69.93;93295.53;2051885;70;20123;-79
2023/07/18 03:45:15;;;;;;;;;;;;;;;22.66;69.64;93297.81;2052159;70;20046;-78
2023/07/18 03:47:42;;;;;;;;;;;;;;;22.65;69.85;93293.50;2052060;70;20426;-78
2023/07/18 03:50:09;;;;;;;;;;;;;;;22.76;68.61;93297.34;2052148;70;20118;-79
2023/07/18 03:52:35;;;;;;;;;;;;;;;22.73;69.29;93292.97;2052306;70;20046;-78
2023/07/18 03:55:01;;;;;;;;;;;;;;;22.72;69.63;93295.09;2052506;70;20051;-78
2023/07/18 03:57:27;;;;;;;;;;;;;;;22.62;70.53;93299.84;2048847;70;20617;-78
2023/07/18 03:59:53;;;;;;;;;;;;;;;22.61;70.26;93293.38;2052240;70;20158;-78
2023/07/18 04:02:19;;;;;;;;;;;;;;;22.62;68.97;93294.84;2049240;70;20146;-78
2023/07/18 04:04:46;;;;;;;;;;;;;;;22.62;69.59;93291.97;2052206;70;20509;-78
2023/07/18 04:07:11;;;;;;;;;;;;;;;22.66;69.92;93294.22;2052324;70;20066;-78
2023/07/18 04:09:37;;;;;;;;;;;;;;;22.45;70.88;93293.72;2052249;70;20098;-78
2023/07/18 04:12:03;;;;;;;;;;;;;;;22.67;70.27;93290.66;2049142;70;20066;-77
2023/07/18 04:14:28;;;;;;;;;;;;;;;22.58;69.93;93278.25;2052090;70;20094;-78
2023/07/18 04:16:53;;;;;;;;;;;;;;;22.55;69.37;93284.63;2052261;70;20047;-78
2023/07/18 04:19:19;;;;;;;;;;;;;;;22.74;68.45;93285.81;2052236;70;20474;-79
2023/07/18 04:21:45;;;;;;;;;;;;;;;22.75;68.64;93287.28;2052405;70;20061;-78
2023/07/18 04:24:12;;;;;;;;;;;;;;;22.73;70.09;93287.22;2052578;70;20098;-79
2023/07/18 04:26:37;;;;;;;;;;;;;;;22.68;70.59;93291.38;2052452;70;20503;-79
2023/07/18 04:29:04;;;;;;;;;;;;;;;22.70;70.82;93289.31;2051988;70;20058;-79
2023/07/18 04:31:29;;;;;;;;;;;;;;;22.69;70.23;93290.00;2049060;70;20154;-78
2023/07/18 04:33:55;;;;;;;;;;;;;;;22.83;68.84;93301.84;2052353;70;20082;-78
2023/07/18 04:36:20;;;;;;;;;;;;;;;22.68;70.06;93297.13;2052332;70;20082;-79
2023/07/18 04:38:45;;;;;;;;;;;;;;;22.69;69.83;93296.47;2052581;70;20050;-79
2023/07/18 04:41:11;;;;;;;;;;;;;;;22.41;71.13;93296.47;2052308;70;20142;-79
2023/07/18 04:43:36;;;;;;;;;;;;;;;22.43;70.47;93282.16;2052141;70;20043;-78
2023/07/18 04:46:03;;;;;;;;;;;;;;;22.67;70.06;93295.69;2052460;70;20156;-80
2023/07/18 04:48:29;;;;;;;;;;;;;;;22.72;69.41;93303.69;2052375;70;20112;-79
2023/07/18 04:50:58;;;;;;;;;;;;;;;22.88;68.66;93306.25;2049263;70;20568;-79
2023/07/18 04:53:28;;;;;;;;;;;;;;;22.85;69.07;93299.00;2052319;70;20050;-78
2023/07/18 04:55:57;;;;;;;;;;;;;;;22.84;69.25;93300.41;2048949;70;20058;-80
2023/07/18 04:58:26;;;;;;;;;;;;;;;22.92;69.27;93302.78;2052328;70;20078;-78
2023/07/18 05:00:54;;;;;;;;;;;;;;;23.04;69.08;93303.78;2052181;70;20047;-80
2023/07/18 05:03:21;;;;;;;;;;;;;;;23.08;69.25;93294.56;2051818;70;20506;-80
2023/07/18 05:05:48;;;;;;;;;;;;;;;22.99;68.85;93301.50;2048860;70;20051;-80
2023/07/18 05:08:13;;;;;;;;;;;;;;;23.12;67.79;93306.13;2052120;70;20062;-80
2023/07/18 05:10:40;;;;;;;;;;;;;;;23.18;68.06;93305.53;2052064;70;20054;-80
2023/07/18 05:13:07;;;;;;;;;;;;;;;22.34;71.89;93300.56;2052456;70;20434;-78
2023/07/18 05:15:32;;;;;;;;;;;;;;;22.58;70.93;93303.34;2048992;70;20070;-77
2023/07/18 05:17:58;;;;;;;;;;;;;;;22.91;68.63;93299.19;2051964;70;20061;-77
2023/07/18 05:20:24;;;;;;;;;;;;;;;23.18;67.19;93296.94;2051922;70;20053;-79
2023/07/18 05:22:49;;;;;;;;;;;;;;;23.29;67.11;93307.25;2052399;70;20047;-80
2023/07/18 05:25:16;;;;;;;;;;;;;;;23.42;67.08;93306.13;2052308;70;20049;-80
2023/07/18 05:27:42;;;;;;;;;;;;;;;23.39;66.39;93298.13;2052340;70;20051;-79
2023/07/18 05:30:27;;;;;;;;;;;;;;;23.37;67.12;93298.06;2052382;70;20049;-79
2023/07/18 05:32:55;;;;;;;;;;;;;;;23.47;66.63;93301.91;2052364;70;20070;-79
2023/07/18 05:35:20;;;;;;;;;;;;;;;23.47;67.95;93304.78;2052211;70;20049;-80
2023/07/18 05:37:47;;;;;;;;;;;;;;;23.42;68.24;93299.66;2052214;70;20570;-80
2023/07/18 05:40:12;;;;;;;;;;;;;;;23.55;67.60;93296.34;2051957;70;20218;-79
2023/07/18 05:42:39;;;;;;;;;;;;;;;23.57;67.18;93302.13;2052230;70;20058;-80
2023/07/18 05:45:05;;;;;;;;;;;;;;;23.70;65.85;93303.16;2052283;70;20058;-80
2023/07/18 05:47:31;;;;;;;;;;;;;;;23.56;65.25;93297.09;2048992;70;20085;-79
2023/07/18 05:50:17;;;;;;;;;;;;;;;23.44;65.33;93297.53;2051918;70;20051;-80
2023/07/18 05:52:42;;;;;;;;;;;;;;;23.32;65.47;93300.88;2052242;70;20079;-78
2023/07/18 05:55:08;;;;;;;;;;;;;;;23.34;66.42;93300.91;2052277;70;20047;-78
2023/07/18 05:57:34;;;;;;;;;;;;;;;23.27;65.60;93293.56;2052390;70;20046;-77
2023/07/18 06:00:00;;;;;;;;;;;;;;;23.35;65.38;93298.75;2048673;70;20062;-79
2023/07/18 06:02:26;;;;;;;;;;;;;;;23.37;65.10;93286.56;2052168;70;20514;-79
2023/07/18 06:04:53;;;;;;;;;;;;;;;23.65;64.83;93290.13;2048941;70;20094;-78
2023/07/18 06:07:18;;;;;;;;;;;;;;;23.97;64.03;93290.06;2051834;70;20079;-77
2023/07/18 06:09:48;;;;;;;;;;;;;;;23.79;64.10;93290.41;2052284;70;20097;-80
2023/07/18 06:12:16;;;;;;;;;;;;;;;23.94;61.58;93294.31;2052010;70;20051;-79
2023/07/18 06:14:41;;;;;;;;;;;;;;;23.60;62.89;93294.31;2052241;70;20057;-80
2023/07/18 06:17:06;;;;;;;;;;;;;;;23.69;62.12;93289.47;2051789;70;20438;-79
2023/07/18 06:19:32;;;;;;;;;;;;;;;23.93;61.20;93289.97;2052035;70;20106;-80
2023/07/18 06:22:18;;;;;;;;;;;;;;;24.00;59.95;93279.31;2052280;70;20086;-79
2023/07/18 06:24:45;;;;;;;;;;;;;;;23.63;60.56;93290.03;2048225;70;20058;-80
2023/07/18 06:27:11;;;;;;;;;;;;;;;23.91;59.90;93289.19;2048254;70;20142;-79
2023/07/18 06:29:37;;;;;;;;;;;;;;;24.26;59.04;93291.34;2048274;70;20109;-78
2023/07/18 06:32:08;;;;;;;;;;;;;;;24.44;58.68;93288.09;2048347;70;20020;-78
2023/07/18 06:34:40;;;;;;;;;;;;;;;24.63;59.28;93299.94;2047898;70;20201;-79
2023/07/18 06:37:45;;;;;;;;;;;;;;;24.18;58.85;93285.44;2048192;70;20052;-78
2023/07/18 06:40:19;;;;;;;;;;;;;;;24.55;58.45;93280.38;2048380;70;20055;-80
2023/07/18 06:42:45;;;;;;;;;;;;;;;24.64;56.95;93275.50;2047994;70;20047;-78
2023/07/18 06:45:12;;;;;;;;;;;;;;;24.90;56.56;93272.34;2048088;70;20043;-76
2023/07/18 06:47:37;;;;;;;;;;;;;;;24.98;58.02;93270.31;2047909;70;20605;-78
2023/07/18 06:50:03;;;;;;;;;;;;;;;25.05;57.03;93274.00;2047710;70;20174;-78
2023/07/18 06:52:28;;;;;;;;;;;;;;;25.20;57.49;93257.69;2048108;70;20515;-79
2023/07/18 06:54:54;;;;;;;;;;;;;;;24.74;55.71;93270.66;2048552;70;20090;-80
2023/07/18 06:57:21;;;;;;;;;;;;;;;24.77;55.44;93269.25;2052025;70;20142;-80
2023/07/18 06:59:47;;;;;;;;;;;;;;;25.06;54.91;93267.56;2052037;70;20039;-78
2023/07/18 07:02:13;;;;;;;;;;;;;;;25.23;54.14;93265.69;2052315;70;20073;-79
2023/07/18 07:04:39;;;;;;;;;;;;;;;25.35;53.49;93254.34;2051646;70;20046;-77
2023/07/18 07:07:05;;;;;;;;;;;;;;;25.56;54.08;93263.25;2052158;70;20153;-78
2023/07/18 07:09:31;;;;;;;;;;;;;;;25.67;53.48;93258.38;2052355;70;20120;-78
2023/07/18 07:11:56;;;;;;;;;;;;;;;25.39;53.25;93264.47;2052477;70;20055;-78
2023/07/18 07:14:22;;;;;;;;;;;;;;;25.54;53.78;93258.19;2052481;70;20430;-78
2023/07/18 07:16:48;;;;;;;;;;;;;;;25.68;54.58;93249.00;2052397;70;20059;-79
2023/07/18 07:19:14;;;;;;;;;;;;;;;25.90;53.33;93251.50;2052331;70;20054;-78
2023/07/18 07:21:39;;;;;;;;;;;;;;;26.01;52.70;93250.16;2052432;70;20058;-79
2023/07/18 07:24:08;;;;;;;;;;;;;;;26.07;52.65;93237.97;2049184;70;20086;-80
2023/07/18 07:26:34;;;;;;;;;;;;;;;25.98;52.24;93242.94;2052465;70;20102;-79
2023/07/18 07:28:59;;;;;;;;;;;;;;;26.20;52.04;93233.78;2052520;70;20087;-79
2023/07/18 07:31:24;;;;;;;;;;;;;;;26.02;51.91;93224.94;2049241;70;20089;-79
2023/07/18 07:33:50;;;;;;;;;;;;;;;25.90;51.70;93216.88;2049132;70;20043;-79
2023/07/18 07:36:16;;;;;;;;;;;;;;;26.10;51.28;93213.47;2052070;70;20077;-79
2023/07/18 07:38:41;;;;;;;;;;;;;;;26.08;52.10;93216.34;2052496;70;20224;-79
2023/07/18 07:41:07;;;;;;;;;;;;;;;26.16;52.02;93210.69;2049191;70;20047;-80
2023/07/18 07:43:33;;;;;;;;;;;;;;;26.03;53.31;93212.69;2052170;70;20138;-79
2023/07/18 07:45:59;;;;;;;;;;;;;;;25.97;52.58;93206.13;2052539;70;20058;-80
2023/07/18 07:48:25;;;;;;;;;;;;;;;26.39;52.57;93197.19;2048982;70;20414;-78
2023/07/18 07:50:50;;;;;;;;;;;;;;;26.21;51.64;93203.53;2048813;70;20051;-79
2023/07/18 07:53:15;;;;;;;;;;;;;;;26.57;52.10;93205.31;2052394;70;20063;-79
2023/07/18 07:55:41;;;;;;;;;;;;;;;26.36;51.18;93196.44;2052133;70;20046;-79
2023/07/18 07:58:07;;;;;;;;;;;;;;;26.65;52.43;93190.94;2049168;70;20207;-78
2023/07/18 08:00:32;;;;;;;;;;;;;;;26.24;52.86;93186.94;2052472;70;20105;-79
2023/07/18 08:02:58;;;;;;;;;;;;;;;26.86;51.61;93178.13;2049120;70;20054;-82
2023/07/18 08:05:29;;;;;;;;;;;;;;;26.91;51.13;93178.88;2052380;70;20058;-79
2023/07/18 08:07:54;;;;;;;;;;;;;;;27.56;50.27;93173.50;2052131;70;20071;-81
2023/07/18 08:10:20;;;;;;;;;;;;;;;27.59;49.98;93169.19;2049175;70;20042;-86
2023/07/18 08:12:46;;;;;;;;;;;;;;;27.91;49.26;93172.94;2049178;70;20131;-80
2023/07/18 08:15:11;;;;;;;;;;;;;;;27.92;46.50;93165.72;2052342;70;20058;-79
2023/07/18 08:17:37;;;;;;;;;;;;;;;28.26;47.78;93165.06;2049061;70;20077;-79
2023/07/18 08:20:04;;;;;;;;;;;;;;;27.88;47.26;93145.44;2052415;70;20054;-78
2023/07/18 08:22:29;;;;;;;;;;;;;;;28.96;47.15;93149.22;2052292;70;20109;-79
2023/07/18 08:24:55;;;;;;;;;;;;;;;28.33;44.81;93140.47;2049142;70;20472;-80
2023/07/18 08:27:22;;;;;;;;;;;;;;;29.01;45.60;93133.28;2052459;70;20058;-79
2023/07/18 08:29:48;;;;;;;;;;;;;;;29.33;44.96;93135.38;2052594;70;20054;-79
2023/07/18 08:32:14;;;;;;;;;;;;;;;29.57;43.92;93125.19;2052623;70;20427;-81
2023/07/18 08:34:40;;;;;;;;;;;;;;;30.36;43.05;93130.56;2049121;70;20051;-78
2023/07/18 08:37:08;;;;;;;;;;;;;;;29.86;43.71;93126.47;2048936;70;20149;-80
2023/07/18 08:39:33;;;;;;;;;;;;;;;29.68;43.39;93120.75;2052085;70;20070;-79
2023/07/18 08:41:59;;;;;;;;;;;;;;;29.30;43.95;93124.50;2052447;70;20101;-80
2023/07/18 08:44:26;;;;;;;;;;;;;;;30.42;43.43;93108.75;2052423;70;20447;-81
2023/07/18 08:46:51;;;;;;;;;;;;;;;30.60;41.81;93100.59;2049231;70;20498;-81
2023/07/18 08:49:17;;;;;;;;;;;;;;;30.41;41.94;93104.41;2052496;70;20499;-79
2023/07/18 08:51:43;;;;;;;;;;;;;;;30.78;40.60;93087.41;2052672;70;20078;-81
2023/07/18 08:54:10;;;;;;;;;;;;;;;31.25;40.04;93089.84;2051955;70;20061;-77
2023/07/18 08:56:37;;;;;;;;;;;;;;;30.79;40.27;93088.84;2052098;70;20113;-80
2023/07/18 08:59:04;;;;;;;;;;;;;;;30.96;40.85;93090.16;2052532;70;20115;-78
2023/07/18 09:01:29;;;;;;;;;;;;;;;31.37;40.31;93081.03;2052389;70;20046;-78
2023/07/18 09:03:55;;;;;;;;;;;;;;;30.97;41.45;93079.25;2052322;70;20113;-76
2023/07/18 09:06:21;;;;;;;;;;;;;;;31.26;40.07;93073.88;2049101;70;20015;-80
2023/07/18 09:08:47;;;;;;;;;;;;;;;31.07;41.13;93074.06;2052515;70;20117;-82
2023/07/18 09:11:14;;;;;;;;;;;;;;;31.85;40.18;93079.00;2052100;70;20054;-78
2023/07/18 09:13:40;;;;;;;;;;;;;;;31.82;39.13;93071.75;2052584;70;20057;-83
2023/07/18 09:16:22;;;;;;;;;;;;;;;32.25;37.18;93071.16;2049317;70;20081;-85
2023/07/18 09:18:54;;;;;;;;;;;;;;;32.10;38.74;93074.28;2052592;70;20427;-85
2023/07/18 09:21:20;;;;;;;;;;;;;;;31.60;36.71;93064.00;2052796;70;20120;-84
2023/07/18 09:23:47;;;;;;;;;;;;;;;32.29;38.05;93056.53;2052574;70;20116;-83
2023/07/18 09:26:14;;;;;;;;;;;;;;;32.34;37.88;93052.06;2052377;70;20560;-83
2023/07/18 09:28:39;;;;;;;;;;;;;;;33.56;35.99;93058.69;2052559;70;20085;-82
2023/07/18 09:31:35;;;;;;;;;;;;;;;32.26;36.90;93044.19;2052586;70;20494;-85
2023/07/18 09:34:00;;;;;;;;;;;;;;;32.24;36.79;93037.69;2045107;70;20076;-83
2023/07/18 09:36:26;;;;;;;;;;;;;;;33.52;35.77;93038.34;2045251;70;20094;-81
2023/07/18 09:38:54;;;;;;;;;;;;;;;33.74;36.03;93033.53;2045045;70;20103;-81
2023/07/18 09:41:21;;;;;;;;;;;;;;;33.69;36.28;93038.03;2045171;70;20051;-83
2023/07/18 09:43:47;;;;;;;;;;;;;;;31.97;36.60;93032.25;2045511;70;20559;-90
2023/07/18 09:46:13;;;;;;;;;;;;;;;33.18;36.63;93025.16;2045074;70;20496;-76
2023/07/18 09:48:40;;;;;;;;;;;;;;;33.58;34.90;93017.78;2045019;70;20055;-75
2023/07/18 09:51:08;;;;;;;;;;;;;;;34.35;34.42;93014.63;2045055;70;20052;-82
2023/07/18 09:53:34;;;;;;;;;;;;;;;33.57;36.10;93013.44;2044986;70;20110;-81
2023/07/18 09:56:00;;;;;;;;;;;;;;;35.19;34.06;93003.75;2041769;70;20515;-83
2023/07/18 09:58:27;;;;;;;;;;;;;;;35.25;32.60;93006.53;2044821;70;20067;-82
2023/07/18 10:00:53;;;;;;;;;;;;;;;35.67;33.13;92992.91;2044898;70;20115;-82
2023/07/18 10:03:21;;;;;;;;;;;;;;;35.49;32.14;92997.06;2044831;70;20168;-82
2023/07/18 10:05:46;;;;;;;;;;;;;;;35.92;31.87;93000.94;2044848;70;20074;-77
2023/07/18 10:08:12;;;;;;;;;;;;;;;35.43;32.38;92996.50;2044997;70;20056;-80
2023/07/18 10:10:38;;;;;;;;;;;;;;;36.34;31.17;92993.06;2049305;70;20442;-81
2023/07/18 10:13:04;;;;;;;;;;;;;;;36.73;31.25;92991.78;2051880;70;20507;-81
2023/07/18 10:15:30;;;;;;;;;;;;;;;36.80;29.71;92984.94;2052775;70;20050;-78
2023/07/18 10:18:14;;;;;;;;;;;;;;;37.34;30.60;92981.59;2052224;70;20083;-79
2023/07/18 10:20:40;;;;;;;;;;;;;;;36.49;30.50;92970.59;2055443;70;20498;-80
2023/07/18 10:23:07;;;;;;;;;;;;;;;37.43;29.28;92979.09;2055601;70;20124;-81
2023/07/18 10:25:32;;;;;;;;;;;;;;;36.18;30.24;92970.84;2055447;69;20113;-78
2023/07/18 10:27:58;;;;;;;;;;;;;;;36.73;30.36;92971.25;2055417;70;20090;-82
2023/07/18 10:30:35;;;;;;;;;;;;;;;38.26;28.06;92962.72;2055479;70;20164;-82
2023/07/18 10:33:01;;;;;;;;;;;;;;;39.06;28.75;92969.00;2055481;70;20093;-78
2023/07/18 10:35:29;;;;;;;;;;;;;;;39.61;29.26;92951.84;2055032;70;20050;-86
2023/07/18 10:37:55;;;;;;;;;;;;;;;39.97;26.36;92960.53;2052249;70;20050;-82
2023/07/18 10:40:33;;;;;;;;;;;;;;;39.73;27.54;92945.44;2056005;70;20491;-81
2023/07/18 10:43:01;;;;;;;;;;;;;;;40.85;26.98;92937.06;2055748;70;20062;-82
2023/07/18 10:45:27;;;;;;;;;;;;;;;42.40;24.89;92948.78;2052488;70;20058;-81
2023/07/18 10:47:53;;;;;;;;;;;;;;;44.23;22.39;92951.91;2055976;69;20078;-83
2023/07/18 10:50:18;;;;;;;;;;;;;;;45.77;21.26;92952.00;2055927;70;20053;-81
2023/07/18 10:52:44;;;;;;;;;;;;;;;45.15;20.70;92942.94;2055750;69;20475;-79
2023/07/18 10:55:12;;;;;;;;;;;;;;;45.49;21.40;92936.19;2056020;69;20058;-82
2023/07/18 10:57:38;;;;;;;;;;;;;;;47.19;20.25;92931.28;2055953;70;20518;-79
2023/07/18 11:00:05;;;;;;;;;;;;;;;46.61;20.58;92925.25;2055854;70;20395;-80
2023/07/18 11:02:38;;;;;;;;;;;;;;;46.26;19.52;92921.81;2055883;70;20142;-81
2023/07/18 11:05:11;;;;;;;;;;;;;;;48.96;18.67;92931.44;2055854;70;20557;-82
2023/07/18 11:07:44;;;;;;;;;;;;;;;48.11;18.12;92912.97;2056023;69;20015;-81
2023/07/18 11:10:11;;;;;;;;;;;;;;;48.00;17.67;92896.72;2055763;70;20113;-81
2023/07/18 11:12:37;;;;;;;;;;;;;;;48.01;19.97;92892.88;2055666;70;20504;-80
2023/07/18 11:15:04;;;;;;;;;;;;;;;50.10;16.72;92885.09;2055508;70;20050;-80
2023/07/18 11:17:31;;;;;;;;;;;;;;;51.30;16.02;92870.47;2055853;70;20061;-81
2023/07/18 11:19:57;;;;;;;;;;;;;;;46.46;17.65;92863.03;2055684;69;20046;-80
2023/07/18 11:22:24;;;;;;;;;;;;;;;50.57;16.61;92878.63;2052657;70;20070;-81
2023/07/18 11:24:50;;;;;;;;;;;;;;;51.56;15.50;92877.00;2055681;70;20112;-79
2023/07/18 11:27:18;;;;;;;;;;;;;;;48.68;17.77;92865.81;2052537;70;20046;-78
2023/07/18 11:30:04;;;;;;;;;;;;;;;49.56;16.62;92846.44;2055774;70;20165;-76
2023/07/18 11:32:40;;;;;;;;;;;;;;;44.68;20.95;92826.63;2055837;70;20095;-78
2023/07/18 11:35:09;;;;;;;;;;;;;;;51.27;16.33;92830.28;2052340;70;20509;-79
2023/07/18 11:37:36;;;;;;;;;;;;;;;51.65;16.07;92831.94;2055443;70;20050;-78
2023/07/18 11:40:01;;;;;;;;;;;;;;;48.53;16.48;92826.78;2055544;69;20133;-79
2023/07/18 11:42:46;;;;;;;;;;;;;;;45.90;18.07;92826.28;2055587;69;20493;-78
2023/07/18 11:45:12;;;;;;;;;;;;;;;41.85;21.89;92830.66;2055473;70;20054;-79
2023/07/18 11:47:50;;;;;;;;;;;;;;;40.57;23.61;92850.00;2049128;70;20050;-78
2023/07/18 11:50:15;;;;;;;;;;;;;;;39.62;25.14;92842.03;2055119;69;20050;-80
2023/07/18 11:52:48;;;;;;;;;;;;;;;39.06;25.58;92834.31;2055395;70;20483;-78
2023/07/18 11:55:16;;;;;;;;;;;;;;;37.06;30.79;92841.78;2049720;70;20054;-77
2023/07/18 11:57:42;;;;;;;;;;;;;;;36.04;30.55;92830.69;2055671;69;20025;-78
2023/07/18 12:00:09;;;;;;;;;;;;;;;36.50;31.36;92840.09;2055751;70;20482;-77
2023/07/18 12:02:38;;;;;;;;;;;;;;;36.76;32.63;92844.31;2055606;69;20140;-79
2023/07/18 12:05:05;;;;;;;;;;;;;;;41.60;29.42;92834.94;2055112;70;20086;-78
2023/07/18 12:07:32;;;;;;;;;;;;;;;46.43;24.24;92807.53;2055672;70;20557;-77
2023/07/18 12:09:57;;;;;;;;;;;;;;;45.08;20.33;92796.38;2055837;69;20066;-78
2023/07/18 12:12:23;;;;;;;;;;;;;;;47.39;20.02;92782.31;2052392;70;20051;-79
2023/07/18 12:14:52;;;;;;;;;;;;;;;46.59;18.85;92774.25;2055747;70;20018;-80
2023/07/18 12:17:17;;;;;;;;;;;;;;;47.47;19.01;92760.78;2055436;70;20089;-80
2023/07/18 12:19:44;;;;;;;;;;;;;;;48.48;18.04;92739.84;2055638;70;20106;-79
2023/07/18 12:22:10;;;;;;;;;;;;;;;50.39;16.61;92721.56;2055344;69;20054;-80
2023/07/18 12:24:36;;;;;;;;;;;;;;;49.14;17.70;92710.38;2055446;69;20142;-79
2023/07/18 12:27:03;;;;;;;;;;;;;;;46.71;19.83;92707.13;2055457;70;20046;-80
2023/07/18 12:29:28;;;;;;;;;;;;;;;49.50;17.41;92695.19;2055896;70;20058;-78
2023/07/18 12:31:55;;;;;;;;;;;;;;;44.74;20.90;92701.50;2055754;70;20023;-79
2023/07/18 12:34:20;;;;;;;;;;;;;;;42.58;21.39;92710.31;2055391;69;20137;-79
2023/07/18 12:36:46;;;;;;;;;;;;;;;38.14;26.34;92708.97;2055495;70;20557;-80
2023/07/18 12:39:12;;;;;;;;;;;;;;;37.42;28.82;92739.16;2052519;70;20465;-79
2023/07/18 12:41:38;;;;;;;;;;;;;;;37.57;27.24;92784.78;2055795;69;20093;-79
2023/07/18 12:44:04;;;;;;;;;;;;;;;37.30;27.43;92860.69;2055760;69;20074;-78
2023/07/18 12:46:29;;;;;;;;;;;;;;;35.20;30.54;92921.06;2055721;69;20493;-78
2023/07/18 12:48:55;;;;;;;;;;;;;;;33.31;31.91;92978.94;2055640;69;20149;-77